Time;durP1;ratioP1;P1;durP2;ratioP2;P2;SDS_P1;SDS_P2;PMS_P1;PMS_P2;Temp;Humidity;BMP_temperature;BMP_pressure;BME280_temperature;BME280_humidity;BME280_pressure;Samples;Min_cycle;Max_cycle;Signal;HPM_P1;HPM_P2
2022/06/28 02:01:37;;;;;;;4.30;0.73;;;;;;;;;;4699852;27;11623082;-67
2022/06/28 02:04:24;;;;;;;1.33;0.83;;;;;;;;;;5039261;28;20034;-67
2022/06/28 02:06:52;;;;;;;0.83;0.67;;;;;;;;;;5042892;28;20033;-66
2022/06/28 02:09:18;;;;;;;6.73;1.37;;;;;;;;;;5025783;28;20037;-67
2022/06/28 02:11:45;;;;;;;0.93;0.50;;;;;;;;;;5045031;28;20379;-67
2022/06/28 02:14:12;;;;;;;1.37;0.83;;;;;;;;;;5031238;28;20107;-70
2022/06/28 02:16:39;;;;;;;2.50;1.03;;;;;;;;;;5048648;28;20056;-68
2022/06/28 02:19:06;;;;;;;3.80;0.83;;;;;;;;;;5048001;28;20032;-68
2022/06/28 02:21:37;;;;;;;1.57;0.97;;;;;;;;;;5014873;28;20037;-70
2022/06/28 02:24:05;;;;;;;12.27;1.10;;;;;;;;;;5029949;28;20033;-67
2022/06/28 02:26:32;;;;;;;0.63;0.53;;;;;;;;;;5043248;28;20017;-67
2022/06/28 02:28:59;;;;;;;0.50;0.40;;;;;;;;;;5043690;28;20104;-67
2022/06/28 02:31:26;;;;;;;2.10;1.10;;;;;;;;;;5043347;28;20029;-68
2022/06/28 02:33:53;;;;;;;3.53;0.93;;;;;;;;;;5043844;28;20096;-71
2022/06/28 02:41:49;;;;;;;1.35;0.85;;;;;;;;;;5047303;28;20087;-72
2022/06/28 02:44:17;;;;;;;4.23;1.20;;;;;;;;;;5047437;28;20017;-73
2022/06/28 02:46:44;;;;;;;1.53;1.00;;;;;;;;;;5044723;28;20329;-71
2022/06/28 02:49:11;;;;;;;1.57;1.10;;;;;;;;;;5043276;28;20561;-71
2022/06/28 02:51:38;;;;;;;1.90;1.20;;;;;;;;;;5043125;28;20031;-70
2022/06/28 02:54:04;;;;;;;10.63;1.40;;;;;;;;;;5043400;28;20021;-72
2022/06/28 02:56:31;;;;;;;1.20;0.90;;;;;;;;;;5044597;28;20056;-69
2022/06/28 02:59:02;;;;;;;1.53;1.03;;;;;;;;;;5048079;28;20025;-71
2022/06/28 03:01:29;;;;;;;11.83;1.40;;;;;;;;;;5040993;28;20030;-66
2022/06/28 03:03:55;;;;;;;1.87;0.83;;;;;;;;;;5034977;28;20096;-69
2022/06/28 03:06:22;;;;;;;1.97;1.37;;;;;;;;;;5034565;28;20116;-70
2022/06/28 03:08:49;;;;;;;3.37;1.30;;;;;;;;;;5033008;28;20087;-69
2022/06/28 03:11:15;;;;;;;2.10;0.97;;;;;;;;;;5029664;28;20017;-70
2022/06/28 03:13:42;;;;;;;2.03;1.63;;;;;;;;;;5029256;28;20130;-66
2022/06/28 03:16:08;;;;;;;1.53;1.10;;;;;;;;;;5029111;28;20365;-62
2022/06/28 03:18:35;;;;;;;2.43;1.20;;;;;;;;;;5029965;28;20060;-62
2022/06/28 03:21:03;;;;;;;4.07;1.57;;;;;;;;;;5034869;28;20021;-66
2022/06/28 03:23:30;;;;;;;1.83;0.80;;;;;;;;;;5034753;28;20021;-64
2022/06/28 03:25:57;;;;;;;1.90;1.23;;;;;;;;;;5034517;28;20022;-63
2022/06/28 03:28:23;;;;;;;10.67;2.13;;;;;;;;;;5034052;28;20040;-63
2022/06/28 03:30:50;;;;;;;2.67;1.33;;;;;;;;;;5031855;28;20033;-64
2022/06/28 03:33:16;;;;;;;3.17;1.50;;;;;;;;;;5028664;28;20677;-63
2022/06/28 03:35:43;;;;;;;2.83;1.37;;;;;;;;;;5029082;28;20468;-63
2022/06/28 03:38:10;;;;;;;3.17;1.50;;;;;;;;;;5029131;28;20030;-64
2022/06/28 03:40:36;;;;;;;1.90;1.00;;;;;;;;;;5029745;28;20029;-68
2022/06/28 03:43:03;;;;;;;1.30;1.10;;;;;;;;;;5033925;28;20026;-64
2022/06/28 03:45:30;;;;;;;1.93;1.20;;;;;;;;;;5033948;28;20080;-64
2022/06/28 03:47:57;;;;;;;1.70;1.20;;;;;;;;;;5034277;28;20026;-64
2022/06/28 03:50:24;;;;;;;2.77;1.40;;;;;;;;;;5034060;28;20121;-64
2022/06/28 03:52:51;;;;;;;2.67;1.47;;;;;;;;;;5032638;28;20092;-64
2022/06/28 03:55:17;;;;;;;2.33;1.33;;;;;;;;;;5028570;28;20022;-64
2022/06/28 03:57:44;;;;;;;1.53;1.13;;;;;;;;;;5028777;28;20049;-64
2022/06/28 04:00:11;;;;;;;2.00;1.10;;;;;;;;;;5028249;28;20030;-64
2022/06/28 04:02:37;;;;;;;2.17;1.27;;;;;;;;;;5028500;28;20025;-64
2022/06/28 04:05:04;;;;;;;3.83;1.93;;;;;;;;;;5034128;28;20468;-64
2022/06/28 04:07:31;;;;;;;3.40;1.80;;;;;;;;;;5033893;28;20025;-64
2022/06/28 04:09:58;;;;;;;2.70;1.30;;;;;;;;;;5033798;28;20033;-64
2022/06/28 04:12:24;;;;;;;2.80;1.50;;;;;;;;;;5032874;28;20033;-64
2022/06/28 04:14:51;;;;;;;2.73;1.30;;;;;;;;;;5032636;28;20024;-64
2022/06/28 04:17:18;;;;;;;1.63;1.37;;;;;;;;;;5027808;28;20087;-64
2022/06/28 04:19:44;;;;;;;3.00;1.40;;;;;;;;;;5028174;28;20021;-64
2022/06/28 04:22:11;;;;;;;2.57;1.53;;;;;;;;;;5027965;28;20018;-64
2022/06/28 04:24:38;;;;;;;3.53;1.40;;;;;;;;;;5027985;28;20032;-64
2022/06/28 04:27:05;;;;;;;1.57;1.27;;;;;;;;;;5033549;28;20590;-64
2022/06/28 04:29:31;;;;;;;2.73;1.57;;;;;;;;;;5033290;28;20484;-64
2022/06/28 04:31:58;;;;;;;1.90;1.43;;;;;;;;;;5033048;28;20045;-64
2022/06/28 04:34:25;;;;;;;1.70;1.13;;;;;;;;;;5033424;28;20021;-63
2022/06/28 04:36:51;;;;;;;2.73;1.13;;;;;;;;;;5033146;28;20033;-64
2022/06/28 04:39:18;;;;;;;2.40;1.70;;;;;;;;;;5027898;28;20100;-63
2022/06/28 04:41:45;;;;;;;2.97;1.67;;;;;;;;;;5027223;28;20026;-63
2022/06/28 04:44:12;;;;;;;1.97;1.13;;;;;;;;;;5026677;28;20033;-64
2022/06/28 04:46:38;;;;;;;2.63;1.67;;;;;;;;;;5027392;28;20116;-64
2022/06/28 04:49:05;;;;;;;3.97;1.60;;;;;;;;;;5032017;28;20419;-64
2022/06/28 04:51:32;;;;;;;2.67;1.40;;;;;;;;;;5033048;28;20021;-64
2022/06/28 04:53:58;;;;;;;2.20;1.00;;;;;;;;;;5032644;28;20021;-64
2022/06/28 04:56:25;;;;;;;15.37;2.43;;;;;;;;;;5032980;28;20099;-64
2022/06/28 04:58:52;;;;;;;1.63;1.30;;;;;;;;;;5032782;28;20052;-64
2022/06/28 05:01:19;;;;;;;2.27;1.47;;;;;;;;;;5027528;28;20046;-64
2022/06/28 05:03:45;;;;;;;3.40;1.87;;;;;;;;;;5026772;28;20687;-64
2022/06/28 05:06:12;;;;;;;2.47;1.40;;;;;;;;;;5026949;28;20476;-65
2022/06/28 05:08:39;;;;;;;2.53;1.67;;;;;;;;;;5027304;28;20091;-64
2022/06/28 05:11:07;;;;;;;1.77;1.37;;;;;;;;;;5031650;28;20427;-66
2022/06/28 05:13:34;;;;;;;2.47;1.20;;;;;;;;;;5032429;28;20039;-64
2022/06/28 05:16:01;;;;;;;1.83;1.30;;;;;;;;;;5032584;28;20625;-64
2022/06/28 05:18:28;;;;;;;3.50;1.53;;;;;;;;;;5032536;28;20084;-64
2022/06/28 05:20:54;;;;;;;4.83;2.03;;;;;;;;;;5032180;28;20064;-64
2022/06/28 05:23:21;;;;;;;1.70;1.37;;;;;;;;;;5027316;28;20029;-64
2022/06/28 05:25:47;;;;;;;3.67;1.30;;;;;;;;;;5026920;28;20422;-64
2022/06/28 05:28:14;;;;;;;2.13;1.40;;;;;;;;;;5027035;28;20484;-64
2022/06/28 05:30:41;;;;;;;4.10;1.60;;;;;;;;;;5026856;28;20101;-64
2022/06/28 05:33:08;;;;;;;2.37;1.10;;;;;;;;;;5031229;28;20353;-64
2022/06/28 05:35:34;;;;;;;4.63;1.97;;;;;;;;;;5031981;28;20464;-64
2022/06/28 05:38:02;;;;;;;1.63;1.17;;;;;;;;;;5031565;28;20391;-64
2022/06/28 05:40:29;;;;;;;2.10;1.60;;;;;;;;;;5032515;28;20025;-64
2022/06/28 05:42:56;;;;;;;2.17;1.17;;;;;;;;;;5032306;28;20551;-64
2022/06/28 05:45:23;;;;;;;3.13;1.33;;;;;;;;;;5027996;28;20037;-64
2022/06/28 05:47:49;;;;;;;1.97;1.63;;;;;;;;;;5026592;28;20032;-64
2022/06/28 05:50:16;;;;;;;2.30;1.57;;;;;;;;;;5026551;28;20033;-64
2022/06/28 05:52:43;;;;;;;1.27;1.03;;;;;;;;;;5026452;28;20033;-64
2022/06/28 05:55:09;;;;;;;3.27;2.40;;;;;;;;;;5030333;28;20030;-64
2022/06/28 05:57:36;;;;;;;1.37;1.00;;;;;;;;;;5031327;28;20030;-64
2022/06/28 06:00:04;;;;;;;2.33;1.33;;;;;;;;;;5032075;28;20029;-64
2022/06/28 06:02:30;;;;;;;12.10;1.30;;;;;;;;;;5032021;28;20369;-64
2022/06/28 06:04:59;;;;;;;1.57;1.27;;;;;;;;;;5032062;28;20087;-64
2022/06/28 06:07:26;;;;;;;2.40;1.57;;;;;;;;;;5027420;28;20079;-65
2022/06/28 06:09:52;;;;;;;1.93;1.50;;;;;;;;;;5026364;28;20038;-64
2022/06/28 06:12:21;;;;;;;5.87;1.70;;;;;;;;;;5026588;28;20140;-64
2022/06/28 06:14:47;;;;;;;1.90;1.30;;;;;;;;;;5026631;28;20025;-64
2022/06/28 06:17:14;;;;;;;1.63;1.23;;;;;;;;;;5029399;28;20025;-64
2022/06/28 06:19:41;;;;;;;2.60;1.30;;;;;;;;;;5031933;28;20058;-64
2022/06/28 06:22:07;;;;;;;1.90;1.13;;;;;;;;;;5031984;28;20021;-64
2022/06/28 06:24:34;;;;;;;3.50;1.57;;;;;;;;;;5031388;28;20025;-64
2022/06/28 06:27:00;;;;;;;1.57;1.10;;;;;;;;;;5031692;28;20111;-64
2022/06/28 06:29:28;;;;;;;1.20;0.97;;;;;;;;;;5028395;28;20042;-64
2022/06/28 06:31:55;;;;;;;2.37;1.17;;;;;;;;;;5026106;28;20032;-64
2022/06/28 06:34:21;;;;;;;24.93;1.47;;;;;;;;;;5026398;28;20030;-64
2022/06/28 06:36:48;;;;;;;4.00;1.40;;;;;;;;;;5027724;28;20083;-64
2022/06/28 06:39:15;;;;;;;1.33;1.10;;;;;;;;;;5032743;28;20026;-64
2022/06/28 06:41:41;;;;;;;1.97;1.27;;;;;;;;;;5035078;28;20105;-65
2022/06/28 06:44:08;;;;;;;1.93;1.30;;;;;;;;;;5035395;28;20494;-64
2022/06/28 06:46:36;;;;;;;2.27;1.27;;;;;;;;;;5035190;28;20017;-64
2022/06/28 06:49:02;;;;;;;1.03;0.73;;;;;;;;;;5035203;28;20025;-64
2022/06/28 06:51:30;;;;;;;1.43;0.70;;;;;;;;;;5032123;28;20407;-64
2022/06/28 06:53:58;;;;;;;0.50;0.50;;;;;;;;;;5029775;28;20491;-64
2022/06/28 06:56:25;;;;;;;3.37;0.87;;;;;;;;;;5029220;28;20074;-64
2022/06/28 06:58:51;;;;;;;1.53;0.90;;;;;;;;;;5029387;28;20029;-64
2022/06/28 07:01:18;;;;;;;2.27;1.23;;;;;;;;;;5032263;28;20025;-64
2022/06/28 07:03:45;;;;;;;1.37;1.20;;;;;;;;;;5035119;28;20032;-64
2022/06/28 07:06:13;;;;;;;0.70;0.70;;;;;;;;;;5035037;28;20021;-64
2022/06/28 07:08:40;;;;;;;1.30;0.73;;;;;;;;;;5034608;28;20075;-64
2022/06/28 07:11:06;;;;;;;1.53;1.00;;;;;;;;;;5034739;28;20040;-64
2022/06/28 07:13:33;;;;;;;0.53;0.53;;;;;;;;;;5032025;28;20103;-64
2022/06/28 07:16:01;;;;;;;3.47;1.20;;;;;;;;;;5029432;28;20037;-64
2022/06/28 07:18:29;;;;;;;2.30;0.80;;;;;;;;;;5029172;28;20067;-64
2022/06/28 07:20:56;;;;;;;1.13;0.63;;;;;;;;;;5029409;28;20322;-64
2022/06/28 07:23:23;;;;;;;0.73;0.70;;;;;;;;;;5031640;28;20025;-64
2022/06/28 07:25:50;;;;;;;1.33;0.80;;;;;;;;;;5034681;28;20021;-64
2022/06/28 07:28:16;;;;;;;0.37;0.37;;;;;;;;;;5033357;28;20040;-64
2022/06/28 07:30:43;;;;;;;0.63;0.50;;;;;;;;;;5034386;28;20033;-64
2022/06/28 07:33:10;;;;;;;1.30;0.80;;;;;;;;;;5034457;28;20479;-64
2022/06/28 07:35:37;;;;;;;1.37;0.90;;;;;;;;;;5031850;28;20036;-64
2022/06/28 07:38:04;;;;;;;1.40;0.90;;;;;;;;;;5028805;28;20424;-64
2022/06/28 07:40:30;;;;;;;1.60;1.10;;;;;;;;;;5029018;28;20103;-64
2022/06/28 07:42:57;;;;;;;1.63;0.70;;;;;;;;;;5028591;28;20489;-64
2022/06/28 07:45:24;;;;;;;1.13;0.70;;;;;;;;;;5030790;28;20025;-64
2022/06/28 07:47:50;;;;;;;1.13;0.87;;;;;;;;;;5033997;28;20030;-64
2022/06/28 07:53:03;;;;;;;1.37;0.97;;;;;;;;;;5034308;28;20087;-64
2022/06/28 07:55:30;;;;;;;3.20;1.30;;;;;;;;;;5033765;28;20049;-64
2022/06/28 07:57:57;;;;;;;0.80;0.70;;;;;;;;;;5031311;28;20048;-64
2022/06/28 08:00:25;;;;;;;1.77;1.03;;;;;;;;;;5028550;28;20163;-64
2022/06/28 08:02:51;;;;;;;0.90;0.80;;;;;;;;;;5028517;28;20033;-64
2022/06/28 08:05:18;;;;;;;0.53;0.50;;;;;;;;;;5028383;28;20383;-64
2022/06/28 08:07:45;;;;;;;0.20;0.20;;;;;;;;;;5030633;28;20018;-64
2022/06/28 08:10:12;;;;;;;1.80;1.03;;;;;;;;;;5033336;28;20041;-64
2022/06/28 08:12:39;;;;;;;2.20;1.03;;;;;;;;;;5033795;28;20026;-64
2022/06/28 08:15:06;;;;;;;1.07;0.97;;;;;;;;;;5033833;28;20420;-64
2022/06/28 08:17:33;;;;;;;1.37;0.80;;;;;;;;;;5033739;28;20524;-64
2022/06/28 08:19:59;;;;;;;0.87;0.83;;;;;;;;;;5030630;28;20025;-64
2022/06/28 08:22:26;;;;;;;0.83;0.83;;;;;;;;;;5028071;28;20022;-64
2022/06/28 08:24:53;;;;;;;0.57;0.57;;;;;;;;;;5027917;28;20476;-64
2022/06/28 08:27:19;;;;;;;1.40;1.20;;;;;;;;;;5027734;28;20473;-64
2022/06/28 08:29:47;;;;;;;0.40;0.37;;;;;;;;;;5029322;28;20041;-64
2022/06/28 08:32:16;;;;;;;1.60;0.80;;;;;;;;;;5033370;28;20079;-64
2022/06/28 08:34:42;;;;;;;1.60;0.93;;;;;;;;;;5033466;28;20083;-64
2022/06/28 08:37:09;;;;;;;0.53;0.53;;;;;;;;;;5033414;28;20495;-64
2022/06/28 08:39:36;;;;;;;0.83;0.70;;;;;;;;;;5032886;28;20029;-64
2022/06/28 08:42:04;;;;;;;4.83;1.77;;;;;;;;;;5030679;28;20025;-64
2022/06/28 08:44:34;;;;;;;0.60;0.50;;;;;;;;;;5027257;28;20025;-64
2022/06/28 08:47:02;;;;;;;2.00;1.10;;;;;;;;;;5027803;28;20532;-64
2022/06/28 08:49:47;;;;;;;3.03;0.93;;;;;;;;;;5027685;28;20029;-64
2022/06/28 08:52:14;;;;;;;0.85;0.80;;;;;;;;;;5029945;28;20038;-64
2022/06/28 08:54:42;;;;;;;5.20;1.80;;;;;;;;;;5032564;28;20017;-64
2022/06/28 08:57:09;;;;;;;0.60;0.60;;;;;;;;;;5032934;28;20506;-63
2022/06/28 08:59:36;;;;;;;2.17;0.87;;;;;;;;;;5032337;28;20013;-64
2022/06/28 09:02:06;;;;;;;1.63;1.03;;;;;;;;;;5032410;28;20128;-64
2022/06/28 09:04:33;;;;;;;1.90;1.13;;;;;;;;;;5030093;28;20076;-64
2022/06/28 09:07:00;;;;;;;0.67;0.47;;;;;;;;;;5026725;28;20075;-64
2022/06/28 09:09:27;;;;;;;0.60;0.53;;;;;;;;;;5027194;28;20106;-63
2022/06/28 09:11:54;;;;;;;0.80;0.70;;;;;;;;;;5027354;28;20567;-64
2022/06/28 09:14:21;;;;;;;1.90;0.60;;;;;;;;;;5028911;28;20036;-64
2022/06/28 09:16:48;;;;;;;0.77;0.70;;;;;;;;;;5032344;28;20030;-64
2022/06/28 09:19:16;;;;;;;0.60;0.60;;;;;;;;;;5032565;28;20021;-63
2022/06/28 09:21:43;;;;;;;1.17;0.73;;;;;;;;;;5032618;28;20025;-64
2022/06/28 09:24:10;;;;;;;0.30;0.20;;;;;;;;;;5032276;28;20473;-63
2022/06/28 09:26:37;;;;;;;0.43;0.43;;;;;;;;;;5029980;28;20111;-64
2022/06/28 09:29:12;;;;;;;0.37;0.23;;;;;;;;;;5026742;28;20115;-63
2022/06/28 09:31:39;;;;;;;4.33;0.87;;;;;;;;;;5026708;28;20037;-63
2022/06/28 09:34:06;;;;;;;0.97;0.67;;;;;;;;;;5027013;28;20111;-64
2022/06/28 09:36:37;;;;;;;1.80;1.33;;;;;;;;;;5028842;28;20136;-63
2022/06/28 09:39:11;;;;;;;1.07;0.50;;;;;;;;;;5032139;28;20137;-64
2022/06/28 09:41:38;;;;;;;1.93;1.17;;;;;;;;;;5032190;28;20037;-63
2022/06/28 09:44:04;;;;;;;0.93;0.73;;;;;;;;;;5032269;28;20423;-64
2022/06/28 09:46:32;;;;;;;2.13;0.77;;;;;;;;;;5032191;28;20115;-64
2022/06/28 09:49:00;;;;;;;1.23;0.90;;;;;;;;;;5029034;28;20057;-63
2022/06/28 09:51:29;;;;;;;0.67;0.53;;;;;;;;;;5026655;28;20040;-63
2022/06/28 09:54:06;;;;;;;1.23;1.13;;;;;;;;;;5026699;28;20032;-63
2022/06/28 09:56:36;;;;;;;3.67;0.60;;;;;;;;;;5026822;28;20051;-64
2022/06/28 09:59:04;;;;;;;0.50;0.33;;;;;;;;;;5029214;28;20067;-63
2022/06/28 10:01:30;;;;;;;2.67;1.03;;;;;;;;;;5031761;28;20022;-64
2022/06/28 10:03:58;;;;;;;0.63;0.63;;;;;;;;;;5031618;28;20494;-64
2022/06/28 10:06:25;;;;;;;2.17;1.30;;;;;;;;;;5032085;28;20025;-64
2022/06/28 10:08:52;;;;;;;0.50;0.37;;;;;;;;;;5032092;28;20101;-64
2022/06/28 10:11:19;;;;;;;0.87;0.67;;;;;;;;;;5029976;28;20530;-64
2022/06/28 10:16:49;;;;;;;1.53;0.83;;;;;;;;;;5030536;28;20119;-64
2022/06/28 10:19:20;;;;;;;0.63;0.40;;;;;;;;;;5030600;28;20033;-64
2022/06/28 10:22:07;;;;;;;0.50;0.50;;;;;;;;;;5033880;28;20107;-63
2022/06/28 10:24:54;;;;;;;1.20;0.50;;;;;;;;;;5035750;28;20024;-64
2022/06/28 10:27:22;;;;;;;0.60;0.60;;;;;;;;;;5019505;28;20508;-64
2022/06/28 10:30:05;;;;;;;2.53;1.03;;;;;;;;;;5035775;28;20029;-64
2022/06/28 10:32:42;;;;;;;0.27;0.27;;;;;;;;;;5034557;28;20131;-64
2022/06/28 10:35:09;;;;;;;0.60;0.60;;;;;;;;;;5030190;28;20030;-63
2022/06/28 10:37:36;;;;;;;1.63;0.60;;;;;;;;;;5030264;28;20025;-63
2022/06/28 10:40:21;;;;;;;0.50;0.50;;;;;;;;;;5029891;28;20025;-63
2022/06/28 10:42:52;;;;;;;2.08;0.55;;;;;;;;;;5030869;28;20029;-63
2022/06/28 10:45:22;;;;;;;0.87;0.70;;;;;;;;;;5035539;28;20480;-63
2022/06/28 10:48:24;;;;;;;0.60;0.47;;;;;;;;;;5035327;28;20053;-63
2022/06/28 10:50:59;;;;;;;0.67;0.43;;;;;;;;;;4935831;29;20079;-63
2022/06/28 10:53:27;;;;;;;1.80;0.67;;;;;;;;;;5021627;28;20069;-63
2022/06/28 10:56:15;;;;;;;1.37;0.33;;;;;;;;;;5031609;28;20075;-64
2022/06/28 10:58:58;;;;;;;3.70;1.23;;;;;;;;;;5009961;28;20033;-63
2022/06/28 11:01:42;;;;;;;0.60;0.57;;;;;;;;;;5010333;28;20029;-64
2022/06/28 11:04:11;;;;;;;0.68;0.60;;;;;;;;;;5009665;28;20040;-63
2022/06/28 11:06:41;;;;;;;1.13;0.77;;;;;;;;;;5014657;28;20053;-64
2022/06/28 11:09:28;;;;;;;0.63;0.33;;;;;;;;;;5015167;28;20017;-63
2022/06/28 11:12:13;;;;;;;0.67;0.50;;;;;;;;;;5018844;28;20107;-64
2022/06/28 11:14:51;;;;;;;0.57;0.38;;;;;;;;;;5034897;28;20033;-63
2022/06/28 11:17:22;;;;;;;0.10;0.10;;;;;;;;;;5033378;28;20048;-64
2022/06/28 11:19:53;;;;;;;1.67;1.27;;;;;;;;;;5029305;28;20112;-64
2022/06/28 11:22:23;;;;;;;3.00;1.83;;;;;;;;;;5028647;28;20037;-63
2022/06/28 11:24:50;;;;;;;0.70;0.40;;;;;;;;;;5029243;28;20025;-63
2022/06/28 11:27:22;;;;;;;3.53;1.27;;;;;;;;;;5030283;28;20049;-63
2022/06/28 11:29:52;;;;;;;0.30;0.30;;;;;;;;;;5034338;28;20044;-63
2022/06/28 11:32:27;;;;;;;0.73;0.57;;;;;;;;;;5034190;28;20380;-63
2022/06/28 11:34:54;;;;;;;1.35;0.28;;;;;;;;;;5034853;28;20415;-63
2022/06/28 11:37:22;;;;;;;1.30;0.97;;;;;;;;;;5034548;28;20021;-63
2022/06/28 11:39:51;;;;;;;0.80;0.73;;;;;;;;;;5032076;28;20033;-63
2022/06/28 11:42:17;;;;;;;0.20;0.20;;;;;;;;;;5028078;28;20043;-63
2022/06/28 11:44:45;;;;;;;0.97;0.40;;;;;;;;;;5028803;28;20052;-63
2022/06/28 11:47:12;;;;;;;0.17;0.17;;;;;;;;;;5028393;28;20427;-63
2022/06/28 11:49:38;;;;;;;0.40;0.30;;;;;;;;;;5030378;28;20380;-61
2022/06/28 11:52:05;;;;;;;1.70;0.83;;;;;;;;;;5033919;28;20167;-61
2022/06/28 11:54:32;;;;;;;0.43;0.43;;;;;;;;;;5034153;28;20029;-61
2022/06/28 11:56:58;;;;;;;0.20;0.20;;;;;;;;;;5034171;28;20021;-61
2022/06/28 12:00:03;;;;;;;0.60;0.23;;;;;;;;;;5034176;28;20025;-61
2022/06/28 12:02:38;;;;;;;0.57;0.40;;;;;;;;;;4930825;29;20102;-60
2022/06/28 12:05:05;;;;;;;2.23;0.83;;;;;;;;;;5016857;28;20095;-61
2022/06/28 12:07:36;;;;;;;0.80;0.60;;;;;;;;;;5028521;28;20022;-61
2022/06/28 12:10:03;;;;;;;2.53;1.17;;;;;;;;;;5028243;28;20392;-61
2022/06/28 12:12:30;;;;;;;2.57;0.93;;;;;;;;;;5031250;28;20072;-61
2022/06/28 12:14:57;;;;;;;0.80;0.77;;;;;;;;;;5033827;28;20026;-61
2022/06/28 12:17:24;;;;;;;0.27;0.27;;;;;;;;;;5033731;28;20022;-61
2022/06/28 12:19:51;;;;;;;1.57;0.80;;;;;;;;;;5033435;28;20030;-61
2022/06/28 12:22:25;;;;;;;1.90;1.13;;;;;;;;;;5033492;28;20025;-63
2022/06/28 12:24:54;;;;;;;1.80;0.57;;;;;;;;;;5029926;28;20033;-61
2022/06/28 12:27:22;;;;;;;0.30;0.30;;;;;;;;;;5028179;28;20025;-63
2022/06/28 12:29:49;;;;;;;0.20;0.20;;;;;;;;;;5027540;28;20047;-61
2022/06/28 12:32:16;;;;;;;2.30;1.00;;;;;;;;;;5027760;28;20079;-62
2022/06/28 12:34:43;;;;;;;1.13;0.93;;;;;;;;;;5030321;28;20033;-61
2022/06/28 12:37:10;;;;;;;0.50;0.50;;;;;;;;;;5032810;28;20032;-62
2022/06/28 12:39:37;;;;;;;1.17;0.83;;;;;;;;;;5033079;28;20025;-61
2022/06/28 12:42:05;;;;;;;0.10;0.10;;;;;;;;;;5033323;28;20097;-61
2022/06/28 12:44:32;;;;;;;2.27;0.70;;;;;;;;;;5033268;28;20030;-62
2022/06/28 12:46:59;;;;;;;0.50;0.40;;;;;;;;;;5029714;28;20026;-61
2022/06/28 12:49:25;;;;;;;1.00;0.73;;;;;;;;;;5027373;28;20021;-61
2022/06/28 12:51:53;;;;;;;0.87;0.73;;;;;;;;;;5027326;28;20036;-63
2022/06/28 12:54:20;;;;;;;0.87;0.40;;;;;;;;;;5027477;28;20029;-61
2022/06/28 12:56:46;;;;;;;0.93;0.70;;;;;;;;;;5030315;28;20025;-62
2022/06/28 12:59:13;;;;;;;1.60;0.63;;;;;;;;;;5032455;28;20101;-62
2022/06/28 13:01:40;;;;;;;0.60;0.60;;;;;;;;;;5032473;28;20021;-62
2022/06/28 13:04:08;;;;;;;0.77;0.60;;;;;;;;;;5032840;28;20022;-63
2022/06/28 13:06:35;;;;;;;1.17;0.70;;;;;;;;;;5032499;28;20480;-61
2022/06/28 13:09:02;;;;;;;1.40;0.87;;;;;;;;;;5029266;28;20484;-62
2022/06/28 13:11:28;;;;;;;2.53;1.50;;;;;;;;;;5027035;28;20039;-62
2022/06/28 13:13:55;;;;;;;1.67;1.40;;;;;;;;;;5026349;28;20033;-62
2022/06/28 13:16:22;;;;;;;1.57;0.73;;;;;;;;;;5027269;28;20032;-63
2022/06/28 13:18:48;;;;;;;2.53;0.97;;;;;;;;;;5030022;28;20087;-62
2022/06/28 13:21:15;;;;;;;1.27;0.77;;;;;;;;;;5032527;28;20029;-62
2022/06/28 13:23:42;;;;;;;1.87;1.10;;;;;;;;;;5032154;28;20100;-62
2022/06/28 13:26:08;;;;;;;1.23;1.07;;;;;;;;;;5032313;28;20028;-62
2022/06/28 13:28:35;;;;;;;1.50;0.90;;;;;;;;;;5032342;28;20102;-62
2022/06/28 13:31:02;;;;;;;1.00;0.83;;;;;;;;;;5029502;28;20033;-63
2022/06/28 13:33:29;;;;;;;4.60;2.53;;;;;;;;;;5026885;28;20025;-65
2022/06/28 13:35:57;;;;;;;1.73;1.37;;;;;;;;;;5026762;28;20495;-62
2022/06/28 13:38:24;;;;;;;1.60;1.13;;;;;;;;;;5026784;28;20434;-62
2022/06/28 13:40:51;;;;;;;5.40;1.20;;;;;;;;;;5029061;28;20472;-62
2022/06/28 13:43:33;;;;;;;0.90;0.90;;;;;;;;;;5032373;28;20092;-62
2022/06/28 13:46:00;;;;;;;4.07;0.67;;;;;;;;;;5031462;28;20053;-64
2022/06/28 13:48:27;;;;;;;1.23;0.90;;;;;;;;;;5032088;28;20481;-64
2022/06/28 13:50:54;;;;;;;2.13;0.93;;;;;;;;;;5031648;28;20112;-65
2022/06/28 13:53:20;;;;;;;1.80;0.93;;;;;;;;;;5028429;28;20392;-64
2022/06/28 13:55:47;;;;;;;0.83;0.67;;;;;;;;;;5026559;28;20035;-64
2022/06/28 13:58:14;;;;;;;2.37;1.07;;;;;;;;;;5026596;28;20121;-64
2022/06/28 14:00:41;;;;;;;0.63;0.57;;;;;;;;;;5026459;28;20091;-64
2022/06/28 14:03:08;;;;;;;0.60;0.60;;;;;;;;;;5028472;28;20507;-65
2022/06/28 14:05:35;;;;;;;0.80;0.80;;;;;;;;;;5032228;28;20033;-64
2022/06/28 14:08:02;;;;;;;0.90;0.43;;;;;;;;;;5031370;28;20093;-64
2022/06/28 14:10:28;;;;;;;1.03;0.83;;;;;;;;;;5031462;28;20048;-64
2022/06/28 14:12:56;;;;;;;1.47;0.73;;;;;;;;;;5031960;28;20025;-65
2022/06/28 14:15:23;;;;;;;0.30;0.30;;;;;;;;;;5029037;28;20376;-65
2022/06/28 14:17:50;;;;;;;0.57;0.43;;;;;;;;;;5025968;28;20022;-65
2022/06/28 14:20:17;;;;;;;0.50;0.50;;;;;;;;;;5026157;28;20492;-65
2022/06/28 14:22:44;;;;;;;1.83;0.83;;;;;;;;;;5025970;28;20093;-65
2022/06/28 14:25:11;;;;;;;2.37;0.73;;;;;;;;;;5027980;28;20080;-65
2022/06/28 14:27:38;;;;;;;2.40;0.70;;;;;;;;;;5031740;28;20108;-65
2022/06/28 14:30:06;;;;;;;1.23;0.70;;;;;;;;;;5031803;28;20088;-65
2022/06/28 14:32:32;;;;;;;1.50;1.00;;;;;;;;;;5031830;28;20025;-65
2022/06/28 14:34:59;;;;;;;1.03;0.70;;;;;;;;;;5031303;28;20061;-65
2022/06/28 14:37:26;;;;;;;1.67;0.97;;;;;;;;;;5028248;28;20022;-65
2022/06/28 14:39:53;;;;;;;1.10;0.80;;;;;;;;;;5026211;28;20037;-65
2022/06/28 14:42:21;;;;;;;1.53;0.70;;;;;;;;;;5026001;28;20503;-65
2022/06/28 14:44:48;;;;;;;2.00;1.33;;;;;;;;;;5025824;28;20026;-65
2022/06/28 14:47:15;;;;;;;1.70;1.07;;;;;;;;;;5027942;28;20029;-65
2022/06/28 14:49:42;;;;;;;4.17;2.33;;;;;;;;;;5031584;28;20056;-65
2022/06/28 14:52:09;;;;;;;3.17;2.07;;;;;;;;;;5031162;28;20029;-65
2022/06/28 14:54:36;;;;;;;2.63;1.77;;;;;;;;;;5031161;28;20087;-65
2022/06/28 14:57:04;;;;;;;3.97;1.77;;;;;;;;;;5032177;28;20037;-65
2022/06/28 14:59:31;;;;;;;5.83;2.57;;;;;;;;;;5032624;28;20393;-65
2022/06/28 15:01:58;;;;;;;3.43;1.33;;;;;;;;;;5029558;28;20052;-65
2022/06/28 15:04:26;;;;;;;2.60;1.83;;;;;;;;;;5029111;28;20029;-65
2022/06/28 15:06:53;;;;;;;1.13;1.00;;;;;;;;;;5029072;28;20032;-65
2022/06/28 15:09:19;;;;;;;2.80;1.33;;;;;;;;;;5031055;28;20148;-65
2022/06/28 15:11:46;;;;;;;3.07;1.60;;;;;;;;;;5034855;28;20036;-63
2022/06/28 15:14:13;;;;;;;3.23;1.03;;;;;;;;;;5034163;28;20025;-63
2022/06/28 15:16:41;;;;;;;2.63;0.97;;;;;;;;;;5034857;28;20025;-63
2022/06/28 15:19:08;;;;;;;3.23;1.60;;;;;;;;;;5034898;28;20071;-63
2022/06/28 15:32:37;;;;;;;1.37;0.97;;;;;;;;;;5033292;28;20033;-64
2022/06/28 15:35:04;;;;;;;1.00;0.80;;;;;;;;;;5034554;28;20062;-64
2022/06/28 15:37:31;;;;;;;1.53;1.20;;;;;;;;;;5034121;28;20029;-64
2022/06/28 15:39:57;;;;;;;1.95;1.05;;;;;;;;;;5034408;28;20036;-63
2022/06/28 15:42:24;;;;;;;2.38;1.23;;;;;;;;;;5034067;28;20064;-63
2022/06/28 15:44:51;;;;;;;2.85;0.80;;;;;;;;;;5029496;28;20456;-63
2022/06/28 15:47:18;;;;;;;0.90;0.63;;;;;;;;;;5028855;28;20041;-64
2022/06/28 15:49:45;;;;;;;3.78;0.73;;;;;;;;;;5028689;28;20072;-63
2022/06/28 15:52:12;;;;;;;1.00;0.68;;;;;;;;;;5028095;28;20112;-63
2022/06/28 15:54:38;;;;;;;1.45;0.95;;;;;;;;;;5032107;28;20014;-63
2022/06/28 15:57:05;;;;;;;0.77;0.50;;;;;;;;;;5034166;28;20030;-63
2022/06/28 15:59:32;;;;;;;0.57;0.50;;;;;;;;;;5034023;28;20025;-63
2022/06/28 16:01:58;;;;;;;1.80;1.05;;;;;;;;;;5033477;28;20025;-63
2022/06/28 16:04:25;;;;;;;0.70;0.52;;;;;;;;;;5033687;28;20052;-63
2022/06/28 16:06:52;;;;;;;1.27;0.68;;;;;;;;;;5029857;28;20380;-63
2022/06/28 16:09:18;;;;;;;0.80;0.50;;;;;;;;;;5028004;28;20119;-64
2022/06/28 16:11:45;;;;;;;1.98;0.70;;;;;;;;;;5010164;28;20372;-66
2022/06/28 16:14:13;;;;;;;1.07;0.77;;;;;;;;;;5027965;28;20033;-65
2022/06/28 16:16:40;;;;;;;0.67;0.57;;;;;;;;;;5031485;28;20392;-65
2022/06/28 16:19:07;;;;;;;0.97;0.73;;;;;;;;;;5032345;28;20099;-65
2022/06/28 16:21:33;;;;;;;3.17;0.60;;;;;;;;;;5033395;28;20052;-65
2022/06/28 16:24:00;;;;;;;2.00;0.97;;;;;;;;;;5033487;28;20025;-65
2022/06/28 16:26:26;;;;;;;1.53;1.10;;;;;;;;;;5033337;28;20045;-65
2022/06/28 16:28:53;;;;;;;1.30;0.90;;;;;;;;;;5030102;28;20025;-65
2022/06/28 16:31:20;;;;;;;1.47;0.90;;;;;;;;;;5027448;28;20124;-65
2022/06/28 16:33:46;;;;;;;6.60;2.07;;;;;;;;;;5027457;28;20056;-65
2022/06/28 16:36:13;;;;;;;10.17;3.43;;;;;;;;;;5027924;28;20464;-65
2022/06/28 16:38:40;;;;;;;5.93;0.90;;;;;;;;;;5030798;28;20468;-65
2022/06/28 16:41:06;;;;;;;1.48;0.73;;;;;;;;;;5032514;28;20017;-65
2022/06/28 16:43:33;;;;;;;11.93;0.88;;;;;;;;;;5033422;28;20028;-65
2022/06/28 16:46:00;;;;;;;0.80;0.40;;;;;;;;;;5033292;28;20024;-64
2022/06/28 16:48:26;;;;;;;2.33;0.55;;;;;;;;;;5032845;28;20372;-63
2022/06/28 16:50:53;;;;;;;1.38;0.28;;;;;;;;;;5029981;28;20587;-63
2022/06/28 16:53:20;;;;;;;0.52;0.30;;;;;;;;;;5027545;28;20060;-64
2022/06/28 16:55:46;;;;;;;0.40;0.30;;;;;;;;;;5027508;28;20025;-63
2022/06/28 16:58:13;;;;;;;0.43;0.28;;;;;;;;;;5027048;28;20424;-63
2022/06/28 17:00:40;;;;;;;0.50;0.28;;;;;;;;;;5029595;28;20479;-63
2022/06/28 17:03:06;;;;;;;1.88;0.50;;;;;;;;;;5031764;28;20075;-63
2022/06/28 17:05:33;;;;;;;1.48;0.65;;;;;;;;;;5032536;28;20034;-64
2022/06/28 17:08:00;;;;;;;3.25;0.73;;;;;;;;;;5032772;28;20025;-64
2022/06/28 17:10:26;;;;;;;0.70;0.52;;;;;;;;;;5032544;28;20061;-63